Time;durP1;ratioP1;P1;durP2;ratioP2;P2;SDS_P1;SDS_P2;PMS_P1;PMS_P2;Temp;Humidity;BMP_temperature;BMP_pressure;BME280_temperature;BME280_humidity;BME280_pressure;Samples;Min_cycle;Max_cycle;Signal;HPM_P1;HPM_P2
2022/03/04 00:00:22;;;;;;;15.37;8.03;;;3.00;87.30;;;;;;4901638;29;20040;-76
2022/03/04 00:02:47;;;;;;;15.80;7.43;;;3.00;86.80;;;;;;4903207;29;20056;-75
2022/03/04 00:05:13;;;;;;;16.53;7.67;;;3.00;87.20;;;;;;4913957;29;20060;-75
2022/03/04 00:07:39;;;;;;;15.53;7.97;;;3.00;87.50;;;;;;4904140;29;20028;-76
2022/03/04 00:10:05;;;;;;;15.23;7.20;;;3.00;86.40;;;;;;4907219;29;20113;-76
2022/03/04 00:12:31;;;;;;;17.83;8.30;;;3.00;85.90;;;;;;4911416;29;20125;-76
2022/03/04 00:14:56;;;;;;;17.57;8.17;;;3.00;86.50;;;;;;4902201;29;20029;-76
2022/03/04 00:17:22;;;;;;;17.20;7.83;;;2.90;87.70;;;;;;4901662;29;20480;-75
2022/03/04 00:19:48;;;;;;;17.87;8.20;;;2.90;86.90;;;;;;4917807;29;20124;-75
2022/03/04 00:22:14;;;;;;;16.50;8.07;;;2.90;86.90;;;;;;4901487;29;20071;-75
2022/03/04 00:24:40;;;;;;;17.23;7.73;;;2.90;88.00;;;;;;4917664;29;20032;-74
2022/03/04 00:27:06;;;;;;;16.90;8.30;;;2.90;88.30;;;;;;4917086;29;20082;-74
2022/03/04 00:29:32;;;;;;;17.30;8.47;;;2.90;88.50;;;;;;4901604;29;20138;-75
2022/03/04 00:31:57;;;;;;;17.03;8.73;;;2.90;89.30;;;;;;4917562;29;20167;-75
2022/03/04 00:34:23;;;;;;;16.40;8.43;;;2.90;89.90;;;;;;4901245;29;20036;-75
2022/03/04 00:36:49;;;;;;;17.50;8.60;;;2.90;90.20;;;;;;4917473;29;20035;-75
2022/03/04 00:39:15;;;;;;;15.00;8.10;;;2.80;90.50;;;;;;4901063;29;20090;-75
2022/03/04 00:41:42;;;;;;;17.50;7.57;;;2.70;90.70;;;;;;4918083;29;20016;-75
2022/03/04 00:44:08;;;;;;;16.70;8.43;;;2.70;90.80;;;;;;4900566;29;20024;-76
2022/03/04 00:46:34;;;;;;;15.93;8.20;;;2.60;91.10;;;;;;4918110;29;20028;-75
2022/03/04 00:49:00;;;;;;;16.83;7.93;;;2.60;91.40;;;;;;4918136;29;20024;-76
2022/03/04 00:51:26;;;;;;;15.03;7.90;;;2.60;91.40;;;;;;4900800;29;20123;-76
2022/03/04 00:53:51;;;;;;;18.47;8.27;;;2.60;91.80;;;;;;4918012;29;20020;-76
2022/03/04 00:56:17;;;;;;;16.83;8.10;;;2.50;91.60;;;;;;4900486;29;20458;-78
2022/03/04 00:58:43;;;;;;;15.37;7.77;;;2.40;91.90;;;;;;4900797;29;20032;-77
2022/03/04 01:01:09;;;;;;;15.80;8.33;;;2.40;92.10;;;;;;4900717;29;20058;-77
2022/03/04 01:03:35;;;;;;;18.07;8.47;;;2.40;92.00;;;;;;4900823;29;20115;-77
2022/03/04 01:06:02;;;;;;;19.73;8.93;;;2.40;91.90;;;;;;4917906;29;20020;-77
2022/03/04 01:08:28;;;;;;;16.23;7.63;;;2.40;91.90;;;;;;4900147;29;20036;-75
2022/03/04 01:10:54;;;;;;;13.57;7.43;;;2.50;92.30;;;;;;4913888;29;20094;-76
2022/03/04 01:13:21;;;;;;;17.00;8.27;;;2.50;92.30;;;;;;4900013;29;20458;-75
2022/03/04 01:15:47;;;;;;;18.30;8.30;;;2.40;92.30;;;;;;4917477;29;20091;-75
2022/03/04 01:18:13;;;;;;;13.97;7.40;;;2.40;92.50;;;;;;4899854;29;20020;-76
2022/03/04 01:20:39;;;;;;;18.50;8.07;;;2.40;92.40;;;;;;4917805;29;20436;-76
2022/03/04 01:23:05;;;;;;;15.77;8.13;;;2.40;92.30;;;;;;4935254;29;20380;-75
2022/03/04 01:25:30;;;;;;;15.67;7.73;;;2.40;92.60;;;;;;4935815;29;20114;-76
2022/03/04 01:27:56;;;;;;;14.57;7.53;;;2.30;92.70;;;;;;4936918;29;20020;-76
2022/03/04 01:30:21;;;;;;;14.33;7.97;;;2.30;92.80;;;;;;4936099;29;20056;-75
2022/03/04 01:32:47;;;;;;;17.90;8.70;;;2.30;92.70;;;;;;4935682;29;20028;-74
2022/03/04 01:35:13;;;;;;;18.17;8.03;;;2.30;92.70;;;;;;4934727;29;20036;-75
2022/03/04 01:37:40;;;;;;;16.53;8.37;;;2.30;92.70;;;;;;4936258;29;20019;-75
2022/03/04 01:40:08;;;;;;;14.57;7.57;;;2.30;92.70;;;;;;4935848;29;20487;-74
2022/03/04 01:42:35;;;;;;;17.70;8.40;;;2.20;93.30;;;;;;4936605;29;20099;-75
2022/03/04 01:45:01;;;;;;;18.17;8.20;;;2.20;93.20;;;;;;4935239;29;20082;-75
2022/03/04 01:47:27;;;;;;;14.53;7.60;;;2.10;93.50;;;;;;4935924;29;20019;-75
2022/03/04 01:49:53;;;;;;;17.87;8.20;;;1.90;94.10;;;;;;4935284;29;20032;-75
2022/03/04 01:52:19;;;;;;;18.37;8.60;;;2.00;94.30;;;;;;4934656;29;20380;-75
2022/03/04 01:54:44;;;;;;;18.67;8.17;;;1.90;94.60;;;;;;4935176;29;20034;-75
2022/03/04 01:57:10;;;;;;;16.47;8.97;;;1.90;94.70;;;;;;4934488;29;20028;-75
2022/03/04 01:59:36;;;;;;;18.23;8.50;;;1.90;94.60;;;;;;4936260;29;20040;-75
2022/03/04 02:02:02;;;;;;;17.07;8.57;;;1.90;94.70;;;;;;4936327;29;20026;-75
2022/03/04 02:04:27;;;;;;;18.43;8.20;;;1.90;94.80;;;;;;4935605;29;20465;-76
2022/03/04 02:06:53;;;;;;;19.90;9.97;;;1.80;94.90;;;;;;4936099;29;20120;-76
2022/03/04 02:09:19;;;;;;;16.40;8.53;;;1.80;95.20;;;;;;4935202;29;20032;-76
2022/03/04 02:11:45;;;;;;;17.37;8.33;;;1.80;95.40;;;;;;4934924;29;20461;-75
2022/03/04 02:14:11;;;;;;;18.27;8.43;;;1.80;95.40;;;;;;4934162;29;20083;-75
2022/03/04 02:16:48;;;;;;;18.50;8.17;;;1.70;95.40;;;;;;4936036;29;20058;-75
2022/03/04 02:19:14;;;;;;;18.97;8.30;;;1.80;95.80;;;;;;4934174;29;20043;-76
2022/03/04 02:21:58;;;;;;;16.63;7.80;;;1.80;95.40;;;;;;4934770;29;20421;-75
2022/03/04 02:24:27;;;;;;;16.73;8.33;;;1.70;95.70;;;;;;4934145;29;20032;-76
2022/03/04 02:26:54;;;;;;;20.07;9.20;;;1.70;96.20;;;;;;4935931;29;20461;-75
2022/03/04 02:29:20;;;;;;;17.97;7.97;;;1.70;95.70;;;;;;4935017;29;20437;-76
2022/03/04 02:31:46;;;;;;;19.83;8.43;;;1.70;95.80;;;;;;4933942;29;20118;-75
2022/03/04 02:34:12;;;;;;;18.57;8.40;;;1.70;96.00;;;;;;4935224;29;20047;-76
2022/03/04 02:36:38;;;;;;;16.27;8.00;;;1.70;96.10;;;;;;4934618;29;20373;-75
2022/03/04 02:39:05;;;;;;;18.70;8.80;;;1.70;96.00;;;;;;4935701;29;20055;-75
2022/03/04 02:41:34;;;;;;;21.33;8.43;;;1.60;96.20;;;;;;4933892;29;20034;-75
2022/03/04 02:44:00;;;;;;;19.73;8.73;;;1.60;96.60;;;;;;4935591;29;20023;-75
2022/03/04 02:46:26;;;;;;;23.73;9.17;;;1.60;96.70;;;;;;4934143;29;20066;-76
2022/03/04 02:48:52;;;;;;;21.13;9.40;;;1.50;97.00;;;;;;4935487;29;20059;-76
2022/03/04 02:51:17;;;;;;;21.47;8.77;;;1.50;97.10;;;;;;4933972;29;20075;-76
2022/03/04 02:53:43;;;;;;;19.50;8.73;;;1.50;97.10;;;;;;4934533;29;20369;-76
2022/03/04 02:56:09;;;;;;;22.27;9.60;;;1.50;97.30;;;;;;4934570;29;20024;-77
2022/03/04 02:58:34;;;;;;;17.93;8.70;;;1.50;97.00;;;;;;4935548;29;20036;-76
2022/03/04 03:01:00;;;;;;;21.37;9.00;;;1.50;97.10;;;;;;4936049;29;20031;-76
2022/03/04 03:03:27;;;;;;;19.10;9.27;;;1.50;97.30;;;;;;4934215;29;20027;-77
2022/03/04 03:05:53;;;;;;;19.13;8.83;;;1.50;97.20;;;;;;4934075;29;20027;-77
2022/03/04 03:08:18;;;;;;;18.80;8.73;;;1.50;97.30;;;;;;4933890;29;20027;-77
2022/03/04 03:10:44;;;;;;;17.77;8.07;;;1.60;97.00;;;;;;4934341;29;20043;-77
2022/03/04 03:13:10;;;;;;;22.77;8.87;;;1.60;97.20;;;;;;4935483;29;20404;-77
2022/03/04 03:15:35;;;;;;;20.87;8.33;;;1.60;97.30;;;;;;4935022;29;20099;-77
2022/03/04 03:18:02;;;;;;;16.50;8.60;;;1.60;97.40;;;;;;4934351;29;20028;-76
2022/03/04 03:20:28;;;;;;;21.63;9.00;;;1.60;97.30;;;;;;4935096;29;20123;-76
2022/03/04 03:22:54;;;;;;;20.50;8.83;;;1.50;97.40;;;;;;4934141;29;20508;-75
2022/03/04 03:25:19;;;;;;;23.73;9.10;;;1.50;97.50;;;;;;4933918;29;20024;-77
2022/03/04 03:27:45;;;;;;;20.40;10.20;;;1.50;97.50;;;;;;4934070;29;20445;-76
2022/03/04 03:30:12;;;;;;;23.47;9.83;;;1.50;97.60;;;;;;4917998;29;20059;-76
2022/03/04 03:32:38;;;;;;;19.37;9.37;;;1.40;97.70;;;;;;4935312;29;20024;-76
2022/03/04 03:35:04;;;;;;;20.30;9.87;;;1.40;97.80;;;;;;4935325;29;20449;-76
2022/03/04 03:37:30;;;;;;;18.27;8.90;;;1.30;98.00;;;;;;4933440;29;20047;-76
2022/03/04 03:39:55;;;;;;;21.03;9.53;;;1.30;98.20;;;;;;4934264;29;20063;-76
2022/03/04 03:42:21;;;;;;;20.10;9.20;;;1.30;98.20;;;;;;4917990;29;20453;-76
2022/03/04 03:44:46;;;;;;;21.33;9.57;;;1.30;98.00;;;;;;4938892;29;20027;-75
2022/03/04 03:47:12;;;;;;;20.43;9.73;;;1.20;98.20;;;;;;4937544;29;20060;-75
2022/03/04 03:49:39;;;;;;;19.80;8.93;;;1.20;98.50;;;;;;4937011;29;20479;-74
2022/03/04 03:52:06;;;;;;;20.50;9.97;;;1.10;98.70;;;;;;4938225;29;20028;-74
2022/03/04 03:54:32;;;;;;;27.40;11.43;;;1.10;98.60;;;;;;4920766;29;20361;-74
2022/03/04 03:56:57;;;;;;;28.50;12.20;;;1.00;99.00;;;;;;4937207;29;20023;-74
2022/03/04 03:59:23;;;;;;;22.17;10.17;;;0.90;99.10;;;;;;4937868;29;20031;-74
2022/03/04 04:01:49;;;;;;;23.83;10.43;;;0.90;99.50;;;;;;4936787;29;20031;-74
2022/03/04 04:04:15;;;;;;;21.60;10.20;;;0.90;99.10;;;;;;4936629;29;20074;-74
2022/03/04 04:06:41;;;;;;;22.77;10.37;;;1.00;99.00;;;;;;4937021;29;20031;-74
2022/03/04 04:09:08;;;;;;;22.17;10.53;;;1.00;99.20;;;;;;4936966;29;20483;-74
2022/03/04 04:11:37;;;;;;;22.50;9.97;;;1.00;99.10;;;;;;4936438;29;20532;-74
2022/03/04 04:14:07;;;;;;;20.70;9.40;;;1.10;98.90;;;;;;4938005;29;20026;-74
2022/03/04 04:16:34;;;;;;;23.00;9.13;;;1.10;99.00;;;;;;4937480;29;20027;-75
2022/03/04 04:19:00;;;;;;;24.23;9.97;;;1.10;99.00;;;;;;4936777;29;20461;-75
2022/03/04 04:21:26;;;;;;;19.30;9.37;;;1.10;98.90;;;;;;4920465;29;20038;-75
2022/03/04 04:23:53;;;;;;;20.10;9.47;;;1.10;98.90;;;;;;4938047;29;20442;-74
2022/03/04 04:26:19;;;;;;;22.17;9.83;;;1.10;98.70;;;;;;4936289;29;20027;-76
2022/03/04 04:28:44;;;;;;;18.73;9.20;;;1.10;98.80;;;;;;4936833;29;20063;-76
2022/03/04 04:31:10;;;;;;;22.90;10.77;;;1.00;98.80;;;;;;4938260;29;20027;-76
2022/03/04 04:33:36;;;;;;;23.33;10.13;;;1.00;99.00;;;;;;4935985;29;20055;-76
2022/03/04 04:36:01;;;;;;;23.30;9.57;;;0.90;99.10;;;;;;4938161;29;20024;-76
2022/03/04 04:38:27;;;;;;;21.80;11.27;;;0.90;99.20;;;;;;4936210;29;20520;-76
2022/03/04 04:40:53;;;;;;;26.47;9.90;;;0.90;99.40;;;;;;4936769;29;20023;-75
2022/03/04 04:43:19;;;;;;;24.60;10.93;;;0.90;99.20;;;;;;4935889;29;20453;-75
2022/03/04 04:45:44;;;;;;;21.47;9.50;;;0.90;99.30;;;;;;4936614;29;20461;-75
2022/03/04 04:48:10;;;;;;;22.77;10.27;;;0.90;99.40;;;;;;4937533;29;20028;-75
2022/03/04 04:50:35;;;;;;;21.43;10.20;;;0.90;99.10;;;;;;4935691;29;20031;-75
2022/03/04 04:53:01;;;;;;;19.20;9.30;;;0.80;99.40;;;;;;4937120;29;20547;-75
2022/03/04 04:55:27;;;;;;;20.67;10.43;;;0.90;99.40;;;;;;4935249;29;20051;-76
2022/03/04 04:57:52;;;;;;;18.67;9.73;;;0.90;99.60;;;;;;4937583;29;20082;-76
2022/03/04 05:00:18;;;;;;;22.33;10.20;;;0.90;99.60;;;;;;4935546;29;20078;-76
2022/03/04 05:02:44;;;;;;;21.00;9.80;;;0.80;99.60;;;;;;4937644;29;20363;-76
2022/03/04 05:05:10;;;;;;;22.93;10.33;;;0.90;99.80;;;;;;4937353;29;20024;-76
2022/03/04 05:07:36;;;;;;;21.90;9.90;;;0.90;99.90;;;;;;4935765;29;20448;-76
2022/03/04 05:10:04;;;;;;;22.57;9.97;;;0.90;99.70;;;;;;4936191;29;20070;-76
2022/03/04 05:12:29;;;;;;;21.33;10.20;;;0.90;99.60;;;;;;4936015;29;20456;-77
2022/03/04 05:14:55;;;;;;;24.30;10.30;;;0.90;99.70;;;;;;4936360;29;20035;-77
2022/03/04 05:17:21;;;;;;;25.33;10.43;;;0.90;99.70;;;;;;4936701;29;20028;-77
2022/03/04 05:19:47;;;;;;;24.73;11.07;;;0.90;99.60;;;;;;4937370;29;20027;-77
2022/03/04 05:22:12;;;;;;;24.03;10.93;;;0.80;99.60;;;;;;4937373;29;20027;-77
2022/03/04 05:24:38;;;;;;;23.53;11.50;;;0.80;99.70;;;;;;4936807;29;20392;-77
2022/03/04 05:27:04;;;;;;;20.87;9.63;;;0.80;99.90;;;;;;4936060;29;20059;-77
2022/03/04 05:29:29;;;;;;;24.60;10.60;;;0.80;99.90;;;;;;4935097;29;20051;-77
2022/03/04 05:31:55;;;;;;;23.73;10.67;;;0.80;99.90;;;;;;4937149;29;20022;-77
2022/03/04 05:34:21;;;;;;;25.57;10.80;;;0.80;99.90;;;;;;4935438;29;20038;-77
2022/03/04 05:36:46;;;;;;;21.37;10.40;;;0.80;99.90;;;;;;4936060;29;20020;-77
2022/03/04 05:39:12;;;;;;;23.03;10.30;;;0.80;99.90;;;;;;4920123;29;20392;-77
2022/03/04 05:41:38;;;;;;;25.37;11.63;;;0.80;99.90;;;;;;4935411;29;20027;-77
2022/03/04 05:44:04;;;;;;;24.30;10.73;;;0.70;99.90;;;;;;4935785;29;20024;-77
2022/03/04 05:46:31;;;;;;;23.63;11.20;;;0.70;99.90;;;;;;4936015;29;20026;-77
2022/03/04 05:48:56;;;;;;;24.67;11.00;;;0.70;99.90;;;;;;4935633;29;20028;-77
2022/03/04 05:51:22;;;;;;;26.90;12.27;;;0.70;99.90;;;;;;4935005;29;20031;-77
2022/03/04 05:53:49;;;;;;;25.23;10.33;;;0.60;99.90;;;;;;4935586;29;20028;-77
2022/03/04 05:56:15;;;;;;;26.63;11.20;;;0.70;99.90;;;;;;4936684;29;20019;-77
2022/03/04 05:58:41;;;;;;;26.07;11.97;;;0.70;99.90;;;;;;4934808;29;20051;-77
2022/03/04 06:01:07;;;;;;;23.83;10.77;;;0.70;99.90;;;;;;4935128;29;20028;-76
2022/03/04 06:03:33;;;;;;;25.30;10.90;;;0.70;99.90;;;;;;4936004;29;20098;-77
2022/03/04 06:05:59;;;;;;;27.93;11.50;;;0.60;99.90;;;;;;4934652;29;20035;-76
2022/03/04 06:08:25;;;;;;;27.43;11.90;;;0.60;99.90;;;;;;4935685;29;20055;-76
2022/03/04 06:10:51;;;;;;;26.10;11.60;;;0.60;99.90;;;;;;4935952;29;20047;-75
2022/03/04 06:13:17;;;;;;;25.87;11.37;;;0.60;99.90;;;;;;4936023;29;20026;-75
2022/03/04 06:15:42;;;;;;;22.13;10.43;;;0.60;99.90;;;;;;4934325;29;20114;-75
2022/03/04 06:18:08;;;;;;;26.27;11.63;;;0.50;99.90;;;;;;4936240;29;20019;-75
2022/03/04 06:20:33;;;;;;;24.80;11.50;;;0.50;99.90;;;;;;4934246;29;20032;-74
2022/03/04 06:22:59;;;;;;;26.13;11.23;;;0.50;99.90;;;;;;4934909;29;20472;-75
2022/03/04 06:25:25;;;;;;;26.93;11.43;;;0.40;99.90;;;;;;4935272;29;20035;-76
2022/03/04 06:28:02;;;;;;;31.73;13.20;;;0.40;99.90;;;;;;4934705;29;20452;-76
2022/03/04 06:30:30;;;;;;;33.73;14.17;;;0.50;99.90;;;;;;4934010;29;20151;-75
2022/03/04 06:35:41;;;;;;;35.30;13.63;;;0.50;99.90;;;;;;4935445;29;20039;-75
2022/03/04 06:38:07;;;;;;;34.30;14.10;;;0.50;99.90;;;;;;4934497;29;20481;-75
2022/03/04 06:40:33;;;;;;;34.23;12.80;;;0.50;99.90;;;;;;4934798;29;20023;-75
2022/03/04 06:42:59;;;;;;;36.60;13.87;;;0.60;99.90;;;;;;4934653;29;20474;-75
2022/03/04 06:45:24;;;;;;;33.60;13.90;;;0.70;99.90;;;;;;4934977;29;20028;-75
2022/03/04 06:47:51;;;;;;;31.00;12.27;;;0.70;99.90;;;;;;4935535;29;20110;-75
2022/03/04 06:50:17;;;;;;;26.67;11.90;;;0.70;99.90;;;;;;4934415;29;20373;-76
2022/03/04 06:52:43;;;;;;;27.60;12.67;;;0.70;99.90;;;;;;4934014;29;20028;-76
2022/03/04 06:55:10;;;;;;;28.80;13.10;;;0.80;99.90;;;;;;4935603;29;20035;-75
2022/03/04 06:57:35;;;;;;;25.90;11.97;;;0.70;99.90;;;;;;4933771;29;20405;-75
2022/03/04 07:00:07;;;;;;;30.70;12.80;;;0.80;99.90;;;;;;4935857;29;20040;-75
2022/03/04 07:02:34;;;;;;;31.60;13.93;;;0.80;99.90;;;;;;4933756;29;20024;-75
2022/03/04 07:05:04;;;;;;;23.33;11.43;;;0.80;99.90;;;;;;4935633;29;20254;-76
2022/03/04 07:07:30;;;;;;;27.40;12.93;;;0.90;99.90;;;;;;4934858;29;20019;-76
2022/03/04 07:09:55;;;;;;;29.57;12.93;;;0.90;99.90;;;;;;4935371;29;20095;-75
2022/03/04 07:12:21;;;;;;;26.20;12.50;;;0.90;99.90;;;;;;4918003;29;20035;-76
2022/03/04 07:14:47;;;;;;;24.50;12.40;;;0.90;99.90;;;;;;4934719;29;20030;-76
2022/03/04 07:17:13;;;;;;;28.73;13.23;;;0.90;99.90;;;;;;4935589;29;20027;-76
2022/03/04 07:19:38;;;;;;;28.47;12.90;;;1.00;99.90;;;;;;4937620;29;20086;-76
2022/03/04 07:22:04;;;;;;;27.70;13.30;;;1.00;99.90;;;;;;4938303;29;20023;-77
2022/03/04 07:24:30;;;;;;;26.10;12.70;;;1.00;99.90;;;;;;4939061;29;20019;-77
2022/03/04 07:26:56;;;;;;;46.37;13.90;;;1.10;99.90;;;;;;4938396;29;20028;-77
2022/03/04 07:29:22;;;;;;;29.17;13.90;;;1.10;99.90;;;;;;4938018;29;20043;-77
2022/03/04 07:31:48;;;;;;;29.37;12.77;;;1.20;99.90;;;;;;4937564;29;20035;-77
2022/03/04 07:34:14;;;;;;;29.10;13.40;;;1.20;99.90;;;;;;4939128;29;20042;-77
2022/03/04 07:36:39;;;;;;;26.97;12.57;;;1.20;99.90;;;;;;4937247;29;20456;-76
2022/03/04 07:39:05;;;;;;;26.17;12.70;;;1.30;99.90;;;;;;4938094;29;20024;-77
2022/03/04 07:41:30;;;;;;;28.87;13.33;;;1.40;99.90;;;;;;4937440;29;20034;-77
2022/03/04 07:43:59;;;;;;;28.37;12.83;;;1.40;99.90;;;;;;4937891;29;20021;-77
2022/03/04 07:46:24;;;;;;;29.67;13.10;;;1.50;99.90;;;;;;4937856;29;20031;-77
2022/03/04 07:48:50;;;;;;;27.50;12.07;;;1.50;99.90;;;;;;4937057;29;20515;-77
2022/03/04 07:51:16;;;;;;;26.93;12.73;;;1.60;99.90;;;;;;4937716;29;20515;-77
2022/03/04 07:53:41;;;;;;;26.83;12.10;;;1.60;99.90;;;;;;4938049;29;20504;-76
2022/03/04 07:56:08;;;;;;;30.30;13.50;;;1.70;99.90;;;;;;4937722;29;20027;-77
2022/03/04 07:58:34;;;;;;;26.20;12.63;;;1.80;99.90;;;;;;4936680;29;20457;-77
2022/03/04 08:00:59;;;;;;;27.63;12.43;;;1.90;99.90;;;;;;4937298;29;20031;-74
2022/03/04 08:03:25;;;;;;;28.47;13.30;;;2.00;99.90;;;;;;4936681;29;20034;-74
2022/03/04 08:05:51;;;;;;;31.17;13.90;;;2.00;99.50;;;;;;4936390;29;20031;-74
2022/03/04 08:08:16;;;;;;;29.03;12.57;;;2.10;99.60;;;;;;4936953;29;20034;-74
2022/03/04 08:10:42;;;;;;;26.73;12.90;;;2.10;99.50;;;;;;4936025;29;20484;-74
2022/03/04 08:13:08;;;;;;;29.03;12.97;;;2.10;99.70;;;;;;4937546;29;20107;-74
2022/03/04 08:15:33;;;;;;;27.67;13.17;;;2.20;99.30;;;;;;4935691;29;20118;-77
2022/03/04 08:17:59;;;;;;;25.87;12.90;;;2.30;99.00;;;;;;4936093;29;20392;-76
2022/03/04 08:20:26;;;;;;;33.10;13.70;;;2.40;99.20;;;;;;4937421;29;20038;-75
2022/03/04 08:22:53;;;;;;;29.47;13.73;;;2.40;99.30;;;;;;4937121;29;20051;-75
2022/03/04 08:25:18;;;;;;;30.17;13.37;;;2.40;98.10;;;;;;4937643;29;20032;-75
2022/03/04 08:27:44;;;;;;;29.23;13.40;;;2.50;98.00;;;;;;4936754;29;20089;-75
2022/03/04 08:30:14;;;;;;;31.40;13.57;;;2.60;97.30;;;;;;4935045;29;20493;-75
2022/03/04 08:32:40;;;;;;;25.97;12.47;;;2.60;97.20;;;;;;4935801;29;20034;-75
2022/03/04 08:35:06;;;;;;;32.17;14.20;;;2.70;96.80;;;;;;4936565;29;20028;-76
2022/03/04 08:37:33;;;;;;;26.63;12.17;;;2.70;97.50;;;;;;4937116;29;20031;-76
2022/03/04 08:39:58;;;;;;;26.67;12.63;;;2.80;97.50;;;;;;4937654;29;20106;-75
2022/03/04 08:42:25;;;;;;;27.63;12.77;;;2.90;96.40;;;;;;4937565;29;20079;-75
2022/03/04 08:44:52;;;;;;;29.03;12.47;;;2.90;96.20;;;;;;4919854;29;20260;-75
2022/03/04 08:47:18;;;;;;;29.07;12.70;;;3.00;96.90;;;;;;4936364;29;20023;-75
2022/03/04 08:49:44;;;;;;;30.10;12.40;;;3.00;95.70;;;;;;4935541;29;20039;-75
2022/03/04 08:52:09;;;;;;;29.00;12.70;;;3.10;96.00;;;;;;4937481;29;20028;-76
2022/03/04 08:54:35;;;;;;;29.57;13.63;;;3.10;95.30;;;;;;4935571;29;20051;-75
2022/03/04 08:57:01;;;;;;;30.57;13.17;;;3.20;95.50;;;;;;4936097;29;20492;-75
2022/03/04 08:59:26;;;;;;;27.93;12.97;;;3.20;95.10;;;;;;4937458;29;20043;-76
2022/03/04 09:01:52;;;;;;;25.90;13.47;;;3.30;95.60;;;;;;4921064;29;20047;-76
2022/03/04 09:04:18;;;;;;;26.37;13.03;;;3.30;95.30;;;;;;4918424;29;20375;-76
2022/03/04 09:06:44;;;;;;;27.93;13.23;;;3.30;95.00;;;;;;4916578;29;20032;-75
2022/03/04 09:09:10;;;;;;;28.90;13.93;;;3.40;94.30;;;;;;4917174;29;20047;-75
2022/03/04 09:11:36;;;;;;;27.97;13.23;;;3.50;95.00;;;;;;4917681;29;20456;-75
2022/03/04 09:14:03;;;;;;;29.43;12.87;;;3.50;94.10;;;;;;4917851;29;20040;-75
2022/03/04 09:16:32;;;;;;;30.10;14.03;;;3.50;94.80;;;;;;4901139;29;20079;-76
2022/03/04 09:18:58;;;;;;;28.10;13.30;;;3.60;94.40;;;;;;4900954;29;20451;-75
2022/03/04 09:21:24;;;;;;;28.77;13.30;;;3.60;94.40;;;;;;4920479;29;20477;-75
2022/03/04 09:23:49;;;;;;;28.07;12.87;;;3.70;95.60;;;;;;4927013;29;20384;-75
2022/03/04 09:26:15;;;;;;;29.93;14.03;;;3.70;94.50;;;;;;4922514;29;20024;-75
2022/03/04 09:28:41;;;;;;;28.83;13.57;;;3.80;94.30;;;;;;4915789;29;20187;-76
2022/03/04 09:31:07;;;;;;;24.97;12.77;;;3.90;93.10;;;;;;4924640;29;20031;-76
2022/03/04 09:33:33;;;;;;;29.23;13.70;;;3.90;93.60;;;;;;4935556;29;20027;-76
2022/03/04 09:36:00;;;;;;;28.47;14.63;;;3.90;93.60;;;;;;4935869;29;20028;-76
2022/03/04 09:38:27;;;;;;;28.03;13.67;;;4.00;93.50;;;;;;4936720;29;20035;-76
2022/03/04 09:40:53;;;;;;;28.60;14.03;;;4.00;94.60;;;;;;4927885;29;20477;-75
2022/03/04 09:43:21;;;;;;;30.43;14.60;;;4.20;94.80;;;;;;4900485;29;20032;-76
2022/03/04 09:45:47;;;;;;;30.13;14.20;;;4.20;93.20;;;;;;4918358;29;20084;-76
2022/03/04 09:48:15;;;;;;;35.17;15.23;;;4.20;93.70;;;;;;4903412;29;20028;-75
2022/03/04 09:50:43;;;;;;;27.23;13.00;;;4.30;93.30;;;;;;4920931;29;20044;-76
2022/03/04 09:53:11;;;;;;;30.27;13.93;;;4.30;93.40;;;;;;4936839;29;20031;-75
2022/03/04 09:55:38;;;;;;;29.10;13.97;;;4.30;93.70;;;;;;4935115;29;20056;-76
2022/03/04 09:58:12;;;;;;;28.07;14.30;;;4.50;92.10;;;;;;4934290;29;20465;-76
2022/03/04 10:00:39;;;;;;;33.73;14.07;;;4.60;92.60;;;;;;4932606;29;20036;-75
2022/03/04 10:03:06;;;;;;;29.47;14.13;;;4.60;93.50;;;;;;4936113;29;20032;-75
2022/03/04 10:05:32;;;;;;;31.57;13.70;;;4.70;92.00;;;;;;4934106;29;20389;-75
2022/03/04 10:07:58;;;;;;;32.53;13.93;;;4.80;92.10;;;;;;4923477;29;20119;-75
2022/03/04 10:10:23;;;;;;;32.03;14.63;;;4.90;92.70;;;;;;4925844;29;20047;-77
2022/03/04 10:12:57;;;;;;;32.43;14.30;;;4.90;92.10;;;;;;4922606;29;20036;-77
2022/03/04 10:15:26;;;;;;;30.80;14.53;;;5.00;91.50;;;;;;4928606;29;20047;-76
2022/03/04 10:18:03;;;;;;;31.73;13.97;;;5.10;91.30;;;;;;4921326;29;20469;-76
2022/03/04 10:20:43;;;;;;;32.93;15.17;;;5.10;92.50;;;;;;4923196;29;20024;-75
2022/03/04 10:23:11;;;;;;;29.57;14.40;;;5.20;92.20;;;;;;4925640;29;20038;-75
2022/03/04 10:25:37;;;;;;;32.17;15.33;;;5.30;92.30;;;;;;4918387;29;20145;-75
2022/03/04 10:28:10;;;;;;;26.47;13.70;;;5.30;91.70;;;;;;4907058;29;20647;-74
2022/03/04 10:30:36;;;;;;;32.60;15.47;;;5.40;92.00;;;;;;4922413;29;20058;-75
2022/03/04 10:33:21;;;;;;;33.73;14.57;;;5.40;90.90;;;;;;4924234;29;20031;-76
2022/03/04 10:36:06;;;;;;;31.97;15.10;;;5.40;84.50;;;;;;4923466;29;20158;-76
2022/03/04 10:38:32;;;;;;;34.90;14.77;;;5.30;85.80;;;;;;4918857;29;20028;-76
2022/03/04 10:41:00;;;;;;;27.90;14.10;;;5.50;84.10;;;;;;4897787;29;20553;-75
2022/03/04 10:43:33;;;;;;;32.70;14.20;;;5.50;85.00;;;;;;4898942;29;20024;-75
2022/03/04 10:46:05;;;;;;;29.30;14.13;;;5.60;84.10;;;;;;4912212;29;20024;-77
2022/03/04 10:48:31;;;;;;;29.17;13.48;;;5.60;84.50;;;;;;4916099;29;20470;-77
2022/03/04 10:51:04;;;;;;;32.80;14.67;;;5.70;83.50;;;;;;4915570;29;20127;-75
2022/03/04 10:53:32;;;;;;;35.70;14.97;;;5.70;79.80;;;;;;4916300;29;20028;-75
2022/03/04 10:56:00;;;;;;;31.07;14.63;;;5.80;81.30;;;;;;4900068;29;20035;-75
2022/03/04 10:58:28;;;;;;;29.20;13.50;;;5.80;82.20;;;;;;4917546;29;20063;-76
2022/03/04 11:01:16;;;;;;;32.00;14.33;;;5.80;83.00;;;;;;4915320;29;20039;-77
2022/03/04 11:03:42;;;;;;;32.60;14.87;;;5.80;83.60;;;;;;4902150;29;20028;-77
2022/03/04 11:06:13;;;;;;;28.67;14.20;;;5.90;82.80;;;;;;4918845;29;20119;-77
2022/03/04 11:08:39;;;;;;;33.73;14.17;;;5.80;80.70;;;;;;4889074;29;20505;-75
2022/03/04 11:11:07;;;;;;;30.53;13.63;;;5.90;86.00;;;;;;4915533;29;20389;-75
2022/03/04 11:13:34;;;;;;;28.83;13.67;;;6.20;84.70;;;;;;4928394;29;20026;-75
2022/03/04 11:16:02;;;;;;;28.97;13.60;;;6.30;80.30;;;;;;4925636;29;20042;-76
2022/03/04 11:18:28;;;;;;;25.73;13.57;;;6.30;77.00;;;;;;4916646;29;20028;-78
2022/03/04 11:20:56;;;;;;;29.57;13.50;;;6.30;78.70;;;;;;4916018;29;20039;-77
2022/03/04 11:23:33;;;;;;;30.90;13.87;;;6.50;81.20;;;;;;4903928;29;20052;-76
2022/03/04 11:26:01;;;;;;;31.07;13.10;;;6.50;76.60;;;;;;4911975;29;20024;-77
2022/03/04 11:28:37;;;;;;;26.90;13.83;;;6.50;72.80;;;;;;4915914;29;20039;-76
2022/03/04 11:31:06;;;;;;;32.23;13.37;;;6.60;74.70;;;;;;4889444;29;20033;-76
2022/03/04 11:33:43;;;;;;;25.80;12.40;;;6.50;73.30;;;;;;4896978;29;20032;-75
2022/03/04 11:36:09;;;;;;;29.73;12.83;;;6.60;69.20;;;;;;4912962;29;20028;-75
2022/03/04 11:38:44;;;;;;;26.33;13.33;;;6.70;70.90;;;;;;4915791;29;20107;-74
2022/03/04 11:41:10;;;;;;;31.37;13.27;;;6.80;68.80;;;;;;4896343;29;20040;-75
2022/03/04 11:44:10;;;;;;;25.13;12.53;;;6.90;69.30;;;;;;4915342;29;20393;-76
2022/03/04 11:46:46;;;;;;;27.00;12.23;;;7.00;65.90;;;;;;4916569;29;20032;-75
2022/03/04 11:49:47;;;;;;;25.93;12.53;;;7.00;67.10;;;;;;4910247;29;20036;-75
2022/03/04 11:52:21;;;;;;;29.53;12.07;;;7.10;66.10;;;;;;4915563;29;20024;-75
2022/03/04 11:54:49;;;;;;;24.97;12.40;;;7.10;66.20;;;;;;4915491;29;20032;-76
2022/03/04 11:57:29;;;;;;;24.57;11.90;;;7.20;65.50;;;;;;4899137;29;20382;-74
2022/03/04 11:59:59;;;;;;;25.63;11.97;;;7.30;66.00;;;;;;4919933;29;20118;-75
2022/03/04 12:02:40;;;;;;;27.73;12.13;;;7.30;67.30;;;;;;4934370;29;20035;-74
2022/03/04 12:05:19;;;;;;;31.83;15.13;;;7.30;63.50;;;;;;4934603;29;20027;-76
2022/03/04 12:08:04;;;;;;;25.57;12.70;;;7.40;65.20;;;;;;4906309;29;20039;-76
2022/03/04 12:10:45;;;;;;;24.13;11.77;;;7.40;67.00;;;;;;4917582;29;20036;-75
2022/03/04 12:13:14;;;;;;;29.90;12.60;;;7.50;61.60;;;;;;4917829;29;20036;-74
2022/03/04 12:15:51;;;;;;;25.83;11.67;;;7.60;63.90;;;;;;4918474;29;20032;-75
2022/03/04 12:18:30;;;;;;;22.50;11.37;;;7.80;62.70;;;;;;4917281;29;20081;-74
2022/03/04 12:21:02;;;;;;;28.57;11.83;;;8.00;59.70;;;;;;4916757;29;20466;-75
2022/03/04 12:23:33;;;;;;;20.80;10.65;;;8.20;58.50;;;;;;4905734;29;20104;-75
2022/03/04 12:25:59;;;;;;;21.42;10.43;;;8.20;57.00;;;;;;4913095;29;20039;-74
2022/03/04 12:28:46;;;;;;;22.75;10.73;;;8.50;58.60;;;;;;4900531;29;20060;-75
2022/03/04 12:31:11;;;;;;;22.05;11.18;;;8.70;54.90;;;;;;4915444;29;20516;-75
2022/03/04 12:33:54;;;;;;;20.92;10.57;;;9.00;56.90;;;;;;4918330;29;20028;-74
2022/03/04 12:36:22;;;;;;;21.90;10.63;;;9.10;53.70;;;;;;4919554;29;20028;-74
2022/03/04 12:38:55;;;;;;;24.38;11.65;;;9.40;56.10;;;;;;4919580;29;20122;-74
2022/03/04 12:41:25;;;;;;;21.55;11.73;;;9.70;57.30;;;;;;4907977;29;20071;-74
2022/03/04 12:43:57;;;;;;;22.20;11.32;;;9.90;54.00;;;;;;4919076;29;20381;-74